createdAt,value
2018-12-19T00:06:40.381Z,97.39
2018-12-19T00:17:00.343Z,97.43
2018-12-19T00:27:19.512Z,97.50
2018-12-19T00:37:39.883Z,97.65
2018-12-19T00:48:00.483Z,97.82
2018-12-19T00:58:19.899Z,97.76
2018-12-19T01:08:40.149Z,97.90
2018-12-19T01:19:00.081Z,97.95
2018-12-19T01:29:19.858Z,97.96
2018-12-19T01:39:39.131Z,97.87
2018-12-19T01:49:59.105Z,97.77
2018-12-19T02:00:18.412Z,97.75
2018-12-19T02:10:38.421Z,97.70
2018-12-19T02:20:57.972Z,97.61
2018-12-19T02:31:18.149Z,97.57
2018-12-19T02:41:37.976Z,97.59
2018-12-19T02:51:57.504Z,97.63
2018-12-19T03:02:17.812Z,97.60
2018-12-19T03:12:37.359Z,97.69
2018-12-19T03:22:56.989Z,97.83
2018-12-19T03:33:16.333Z,97.89
2018-12-19T03:43:36.908Z,97.81
2018-12-19T03:53:56.388Z,97.75
2018-12-19T04:04:15.866Z,97.68
2018-12-19T04:14:36.313Z,97.68
2018-12-19T04:24:55.546Z,97.67
2018-12-19T04:35:15.829Z,97.63
2018-12-19T04:45:35.272Z,97.62
2018-12-19T04:55:56.899Z,97.51
2018-12-19T05:06:15.815Z,97.42
2018-12-19T05:16:35.525Z,97.36
2018-12-19T05:26:55.832Z,97.28
2018-12-19T05:37:15.070Z,97.00
2018-12-19T05:47:34.612Z,96.80
2018-12-19T05:57:54.474Z,96.54
2018-12-19T06:08:14.770Z,96.33
2018-12-19T06:18:34.159Z,96.19
2018-12-19T06:28:53.561Z,96.03
2018-12-19T06:39:13.472Z,95.91
2018-12-19T06:49:32.920Z,95.61
2018-12-19T06:59:52.481Z,95.49
2018-12-19T07:10:11.629Z,95.35
2018-12-19T07:20:31.399Z,95.06
2018-12-19T07:30:51.590Z,94.68
2018-12-19T07:41:11.396Z,94.20
2018-12-19T07:51:31.547Z,93.82
2018-12-19T08:01:51.035Z,93.42
2018-12-19T08:12:10.622Z,92.73
2018-12-19T08:22:30.311Z,91.64
2018-12-19T08:32:50.544Z,91.43
2018-12-19T08:43:10.514Z,91.45
2018-12-19T08:53:30.467Z,90.14
2018-12-19T09:03:50.320Z,89.35
2018-12-19T09:14:10.077Z,88.83
2018-12-19T09:24:29.817Z,87.66
2018-12-19T09:34:49.629Z,86.59
2018-12-19T09:45:08.817Z,85.53
2018-12-19T09:55:28.534Z,84.10
2018-12-19T10:05:48.411Z,84.26
2018-12-19T10:16:08.222Z,84.26
2018-12-19T10:26:29.924Z,83.67
2018-12-19T10:36:49.848Z,82.25
2018-12-19T10:47:09.186Z,82.23
2018-12-19T10:57:29.162Z,80.48
2018-12-19T11:07:48.103Z,81.58
2018-12-19T11:18:07.728Z,80.77
2018-12-19T11:28:27.581Z,79.32
2018-12-19T11:38:46.947Z,78.98
2018-12-19T11:49:06.502Z,79.12
2018-12-19T11:59:26.985Z,79.76
2018-12-19T12:09:46.239Z,78.11
2018-12-19T12:20:08.158Z,78.02
2018-12-19T12:30:27.651Z,78.15
2018-12-19T12:40:47.391Z,81.24
2018-12-19T12:51:06.785Z,83.24
2018-12-19T13:01:26.403Z,82.12
2018-12-19T13:11:46.980Z,82.78
2018-12-19T13:22:06.145Z,82.71
2018-12-19T13:32:25.419Z,82.45
2018-12-19T13:42:45.030Z,84.00
2018-12-19T13:53:05.087Z,83.95
2018-12-19T14:03:24.927Z,83.97
2018-12-19T14:13:44.477Z,85.35
2018-12-19T14:24:03.671Z,85.35
2018-12-19T14:34:22.989Z,85.85
2018-12-19T14:44:42.734Z,87.09
2018-12-19T14:55:03.311Z,87.99
2018-12-19T15:05:23.315Z,88.64
2018-12-19T15:16:00.961Z,91.15
2018-12-19T15:26:20.729Z,91.04
2018-12-19T15:36:40.529Z,91.04
2018-12-19T15:47:00.978Z,91.42
2018-12-19T15:57:20.266Z,91.62
2018-12-19T16:07:39.391Z,91.50
2018-12-19T16:17:58.885Z,91.73
2018-12-19T16:28:18.952Z,91.57
2018-12-19T16:38:38.545Z,91.69
2018-12-19T16:48:58.797Z,91.81
2018-12-19T16:59:19.108Z,91.93
2018-12-19T17:09:38.687Z,91.93
2018-12-19T17:20:00.897Z,91.98
2018-12-19T17:30:21.805Z,92.59
2018-12-19T17:40:42.399Z,92.59
2018-12-19T17:51:02.571Z,91.90
2018-12-19T18:01:23.496Z,91.58
2018-12-19T18:11:44.441Z,91.40
2018-12-19T18:22:05.687Z,91.49
2018-12-19T18:32:27.731Z,91.52
2018-12-19T18:42:48.693Z,91.71
2018-12-19T18:53:10.013Z,91.73
2018-12-19T19:03:30.301Z,91.58
2018-12-19T19:13:50.874Z,91.48
2018-12-19T19:24:12.097Z,91.73
2018-12-19T19:34:32.509Z,91.85
2018-12-19T19:44:53.933Z,91.80
2018-12-19T19:55:13.367Z,91.70
2018-12-19T20:05:36.725Z,91.94
2018-12-19T20:15:57.015Z,91.94
2018-12-19T20:26:17.037Z,91.87
2018-12-19T20:36:36.861Z,91.86
2018-12-19T20:46:57.549Z,91.85
2018-12-19T20:57:16.973Z,91.71
2018-12-19T21:07:37.556Z,91.90
2018-12-19T21:18:15.963Z,91.62
2018-12-19T21:28:35.475Z,91.35
2018-12-19T21:38:55.131Z,90.89
2018-12-19T21:49:14.679Z,90.53
2018-12-19T21:59:34.771Z,90.53
2018-12-19T22:09:54.390Z,90.31
2018-12-19T22:20:14.413Z,90.31
2018-12-19T22:30:34.853Z,90.30
2018-12-19T22:40:55.382Z,90.55
2018-12-19T22:51:15.114Z,90.55
2018-12-19T23:01:53.267Z,90.30
2018-12-19T23:12:13.836Z,90.18
2018-12-19T23:22:33.145Z,89.69
2018-12-19T23:33:13.606Z,89.69
2018-12-19T23:43:34.993Z,89.88
2018-12-19T23:53:55.258Z,89.57
